ACA455 CYYC-CYEG
Flight info
| Callsign | ACA455 |
|---|---|
| Flight time | N/A |
| Altitude | 22000 |
| Route | BITGA Q995 OILRS OILRS2 |
| Aircraft | B77W/H-SDE1E2E3FGHIJ2J3J4J5M1RWXY/LB1D1 |
Departure
| Time | 2026-05-08 01:26 |
|---|---|
| Airport | Calgary International Airport (CYYC) |
Arrival
| Time | N/A |
|---|---|
| Airport | Edmonton International Airport (CYEG) |
| Time | Latitude | Longitude | Altitude | Speed | Heading |
|---|---|---|---|---|---|
| 2026-05-08 01:07 | 51.12926 | -114.00002 | 3555 ft | 0 kts | 0° |
| 2026-05-08 01:16 | 51.12915 | -114.00002 | 3561 ft | 2 kts | 2° |
| 2026-05-08 01:17 | 51.12899 | -114.00004 | 3558 ft | 2 kts | 5° |
| 2026-05-08 01:17 | 51.12882 | -114.00007 | 3558 ft | 2 kts | 9° |
| 2026-05-08 01:17 | 51.12866 | -114.00012 | 3558 ft | 2 kts | 18° |
| 2026-05-08 01:17 | 51.12851 | -114.00022 | 3557 ft | 2 kts | 35° |
| 2026-05-08 01:18 | 51.12840 | -114.00041 | 3554 ft | 2 kts | 69° |
| 2026-05-08 01:18 | 51.12837 | -114.00061 | 3552 ft | 1 kts | 86° |
| 2026-05-08 01:18 | 51.12837 | -114.00066 | 3552 ft | 0 kts | 87° |
| 2026-05-08 01:19 | 51.12837 | -114.00065 | 3552 ft | 0 kts | 87° |
| 2026-05-08 01:19 | 51.12837 | -114.00063 | 3552 ft | 0 kts | 87° |
| 2026-05-08 01:20 | 51.12837 | -114.00060 | 3552 ft | 0 kts | 87° |
| 2026-05-08 01:20 | 51.12837 | -114.00045 | 3554 ft | 6 kts | 87° |
| 2026-05-08 01:20 | 51.12837 | -113.99967 | 3553 ft | 7 kts | 95° |
| 2026-05-08 01:20 | 51.12803 | -113.99893 | 3556 ft | 10 kts | 156° |
| 2026-05-08 01:21 | 51.12734 | -113.99866 | 3561 ft | 4 kts | 155° |
| 2026-05-08 01:21 | 51.12732 | -113.99865 | 3561 ft | 1 kts | 155° |
| 2026-05-08 01:21 | 51.12725 | -113.99858 | 3559 ft | 3 kts | 146° |
| 2026-05-08 01:21 | 51.12706 | -113.99759 | 3559 ft | 17 kts | 96° |
| 2026-05-08 01:22 | 51.12700 | -113.99515 | 3560 ft | 18 kts | 99° |
| 2026-05-08 01:22 | 51.12592 | -113.99445 | 3559 ft | 18 kts | 179° |
| 2026-05-08 01:22 | 51.12463 | -113.99443 | 3558 ft | 18 kts | 179° |
| 2026-05-08 01:22 | 51.12336 | -113.99441 | 3557 ft | 18 kts | 179° |
| 2026-05-08 01:23 | 51.12207 | -113.99440 | 3556 ft | 18 kts | 181° |
| 2026-05-08 01:23 | 51.12079 | -113.99444 | 3554 ft | 18 kts | 181° |
| 2026-05-08 01:23 | 51.11950 | -113.99447 | 3553 ft | 18 kts | 181° |
| 2026-05-08 01:23 | 51.11822 | -113.99446 | 3552 ft | 18 kts | 182° |
| 2026-05-08 01:24 | 51.11694 | -113.99446 | 3551 ft | 18 kts | 180° |
| 2026-05-08 01:24 | 51.11565 | -113.99448 | 3550 ft | 18 kts | 180° |
| 2026-05-08 01:24 | 51.11437 | -113.99450 | 3549 ft | 18 kts | 180° |
| 2026-05-08 01:24 | 51.11308 | -113.99452 | 3548 ft | 18 kts | 181° |
| 2026-05-08 01:25 | 51.11180 | -113.99448 | 3547 ft | 18 kts | 175° |
| 2026-05-08 01:25 | 51.11122 | -113.99281 | 3544 ft | 20 kts | 92° |
| 2026-05-08 01:25 | 51.11143 | -113.99068 | 3540 ft | 21 kts | 40° |
| 2026-05-08 01:25 | 51.11288 | -113.99037 | 3546 ft | 28 kts | 1° |
| 2026-05-08 01:26 | 51.11770 | -113.99037 | 3550 ft | 126 kts | 359° |
| 2026-05-08 01:26 | 51.12990 | -113.99082 | 3970 ft | 201 kts | 356° |
| 2026-05-08 01:26 | 51.14350 | -113.99132 | 5834 ft | 191 kts | 357° |
| 2026-05-08 01:26 | 51.15722 | -113.99176 | 6482 ft | 210 kts | 358° |
| 2026-05-08 01:27 | 51.17238 | -113.99162 | 7100 ft | 220 kts | 1° |
| 2026-05-08 01:27 | 51.18755 | -113.98971 | 7988 ft | 218 kts | 5° |
| 2026-05-08 01:27 | 51.20257 | -113.98659 | 8847 ft | 217 kts | 6° |
| 2026-05-08 01:27 | 51.21763 | -113.98312 | 9442 ft | 222 kts | 4° |
| 2026-05-08 01:28 | 51.23378 | -113.98251 | 9710 ft | 245 kts | 358° |
| 2026-05-08 01:28 | 51.25197 | -113.98316 | 10151 ft | 272 kts | 357° |
| 2026-05-08 01:28 | 51.27150 | -113.98353 | 10995 ft | 286 kts | 357° |
| 2026-05-08 01:28 | 51.29216 | -113.98346 | 11638 ft | 311 kts | 358° |
| 2026-05-08 01:29 | 51.31502 | -113.98297 | 11963 ft | 343 kts | 358° |
| 2026-05-08 01:29 | 51.33928 | -113.98203 | 12942 ft | 355 kts | 359° |
| 2026-05-08 01:29 | 51.36427 | -113.98083 | 14087 ft | 361 kts | 358° |
| 2026-05-08 01:29 | 51.38954 | -113.97950 | 15238 ft | 365 kts | 359° |
| 2026-05-08 01:30 | 51.41499 | -113.97813 | 16422 ft | 368 kts | 359° |
| 2026-05-08 01:30 | 51.44042 | -113.97677 | 17543 ft | 373 kts | 359° |
| 2026-05-08 01:30 | 51.46656 | -113.97538 | 18601 ft | 378 kts | 359° |
| 2026-05-08 01:30 | 51.49296 | -113.97274 | 19606 ft | 383 kts | 3° |
| 2026-05-08 01:31 | 51.51944 | -113.96535 | 20631 ft | 389 kts | 9° |
| 2026-05-08 01:31 | 51.54587 | -113.95562 | 21566 ft | 389 kts | 9° |
| 2026-05-08 01:31 | 51.57219 | -113.94597 | 21961 ft | 388 kts | 8° |
| 2026-05-08 01:31 | 51.59863 | -113.93652 | 21941 ft | 387 kts | 8° |
| 2026-05-08 01:32 | 51.62489 | -113.92721 | 21945 ft | 386 kts | 8° |
| 2026-05-08 01:32 | 51.65105 | -113.91724 | 21942 ft | 386 kts | 9° |
| 2026-05-08 01:32 | 51.67718 | -113.90679 | 21941 ft | 387 kts | 10° |
| 2026-05-08 01:32 | 51.70329 | -113.89618 | 21957 ft | 387 kts | 10° |
| 2026-05-08 01:33 | 51.72949 | -113.88552 | 21945 ft | 388 kts | 10° |
| 2026-05-08 01:33 | 51.75564 | -113.87491 | 21940 ft | 388 kts | 10° |
| 2026-05-08 01:33 | 51.78179 | -113.86432 | 21941 ft | 388 kts | 10° |
| 2026-05-08 01:33 | 51.80796 | -113.85375 | 21940 ft | 388 kts | 10° |
| 2026-05-08 01:34 | 51.83417 | -113.84317 | 21938 ft | 387 kts | 10° |
| 2026-05-08 01:34 | 51.86008 | -113.83271 | 21935 ft | 387 kts | 10° |
| 2026-05-08 01:34 | 51.88621 | -113.82216 | 21935 ft | 387 kts | 10° |
| 2026-05-08 01:34 | 51.91231 | -113.81162 | 21938 ft | 386 kts | 10° |
| 2026-05-08 01:35 | 51.93836 | -113.80108 | 21939 ft | 386 kts | 10° |
| 2026-05-08 01:35 | 51.96439 | -113.79053 | 21940 ft | 386 kts | 10° |
| 2026-05-08 01:35 | 51.99045 | -113.77996 | 21940 ft | 386 kts | 10° |
| 2026-05-08 01:35 | 52.01654 | -113.76937 | 21942 ft | 386 kts | 10° |
| 2026-05-08 01:36 | 52.04254 | -113.75880 | 21916 ft | 386 kts | 10° |
| 2026-05-08 01:36 | 52.06860 | -113.74819 | 21914 ft | 386 kts | 10° |
| 2026-05-08 01:36 | 52.09468 | -113.73756 | 21914 ft | 386 kts | 10° |
| 2026-05-08 01:36 | 52.12073 | -113.72693 | 21923 ft | 386 kts | 10° |
| 2026-05-08 01:37 | 52.14686 | -113.71626 | 21915 ft | 386 kts | 10° |
| 2026-05-08 01:37 | 52.17296 | -113.70558 | 21898 ft | 386 kts | 10° |
| 2026-05-08 01:37 | 52.19913 | -113.69487 | 21535 ft | 389 kts | 10° |
| 2026-05-08 01:37 | 52.21648 | -113.68776 | 21238 ft | 388 kts | 10° |
| 2026-05-08 01:38 | 52.25099 | -113.67357 | 20649 ft | 382 kts | 10° |
| 2026-05-08 01:38 | 52.27656 | -113.66304 | 20189 ft | 377 kts | 10° |
| 2026-05-08 01:38 | 52.30186 | -113.65261 | 19741 ft | 372 kts | 10° |
| 2026-05-08 01:38 | 52.31855 | -113.64571 | 19417 ft | 359 kts | 10° |
| 2026-05-08 01:39 | 52.34191 | -113.63601 | 19012 ft | 342 kts | 9° |
| 2026-05-08 01:39 | 52.36449 | -113.62664 | 18615 ft | 327 kts | 9° |
| 2026-05-08 01:39 | 52.38612 | -113.61769 | 18212 ft | 313 kts | 9° |
| 2026-05-08 01:39 | 52.40682 | -113.60913 | 17793 ft | 300 kts | 9° |
| 2026-05-08 01:40 | 52.42669 | -113.60091 | 17420 ft | 288 kts | 9° |
| 2026-05-08 01:40 | 52.44580 | -113.59301 | 17081 ft | 279 kts | 9° |
| 2026-05-08 01:40 | 52.46456 | -113.58528 | 16750 ft | 277 kts | 9° |
| 2026-05-08 01:40 | 52.48348 | -113.57750 | 16435 ft | 286 kts | 9° |
| 2026-05-08 01:41 | 52.50344 | -113.56932 | 16097 ft | 305 kts | 9° |
| 2026-05-08 01:41 | 52.52401 | -113.56079 | 15773 ft | 307 kts | 9° |
| 2026-05-08 01:41 | 52.54443 | -113.55222 | 15405 ft | 298 kts | 9° |
| 2026-05-08 01:41 | 52.56416 | -113.54394 | 15048 ft | 285 kts | 9° |
| 2026-05-08 01:42 | 52.58294 | -113.53608 | 14705 ft | 273 kts | 9° |
| 2026-05-08 01:42 | 52.60110 | -113.52848 | 14385 ft | 265 kts | 9° |
| 2026-05-08 01:42 | 52.61904 | -113.52107 | 14099 ft | 270 kts | 7° |
| 2026-05-08 01:42 | 52.63792 | -113.51793 | 13782 ft | 281 kts | 355° |
| 2026-05-08 01:43 | 52.65792 | -113.51931 | 13395 ft | 293 kts | 352° |
| 2026-05-08 01:43 | 52.67814 | -113.52160 | 12999 ft | 287 kts | 352° |
| 2026-05-08 01:43 | 52.69762 | -113.52379 | 12625 ft | 274 kts | 352° |
| 2026-05-08 01:43 | 52.71626 | -113.52575 | 12280 ft | 262 kts | 352° |
| 2026-05-08 01:44 | 52.73419 | -113.52753 | 11959 ft | 254 kts | 353° |
| 2026-05-08 01:44 | 52.75173 | -113.52922 | 11670 ft | 254 kts | 353° |
| 2026-05-08 01:44 | 52.76994 | -113.53096 | 11382 ft | 272 kts | 353° |
| 2026-05-08 01:44 | 52.78942 | -113.53277 | 11043 ft | 286 kts | 353° |
| 2026-05-08 01:45 | 52.80945 | -113.53454 | 10676 ft | 289 kts | 354° |
| 2026-05-08 01:45 | 52.82928 | -113.53623 | 10316 ft | 289 kts | 354° |
| 2026-05-08 01:45 | 52.84909 | -113.53789 | 10168 ft | 281 kts | 354° |
| 2026-05-08 01:45 | 52.86861 | -113.53951 | 9989 ft | 274 kts | 354° |
| 2026-05-08 01:46 | 52.88743 | -113.54110 | 9638 ft | 274 kts | 354° |
| 2026-05-08 01:46 | 52.90643 | -113.54272 | 9316 ft | 273 kts | 354° |
| 2026-05-08 01:46 | 52.92533 | -113.54433 | 8990 ft | 272 kts | 354° |
| 2026-05-08 01:46 | 52.94420 | -113.54593 | 8660 ft | 271 kts | 355° |
| 2026-05-08 01:47 | 52.96301 | -113.54753 | 8344 ft | 270 kts | 355° |
| 2026-05-08 01:47 | 52.98177 | -113.54912 | 8007 ft | 269 kts | 355° |
| 2026-05-08 01:47 | 53.00039 | -113.55069 | 7792 ft | 264 kts | 355° |
| 2026-05-08 01:48 | 53.03592 | -113.55304 | 7533 ft | 245 kts | 3° |
| 2026-05-08 01:48 | 53.05161 | -113.54446 | 7396 ft | 233 kts | 30° |
| 2026-05-08 01:48 | 53.06386 | -113.52720 | 7334 ft | 236 kts | 41° |
| 2026-05-08 01:48 | 53.07585 | -113.50714 | 7297 ft | 250 kts | 42° |
| 2026-05-08 01:49 | 53.08677 | -113.48475 | 7124 ft | 252 kts | 59° |
| 2026-05-08 01:49 | 53.09034 | -113.45634 | 6974 ft | 255 kts | 91° |
| 2026-05-08 01:49 | 53.08504 | -113.42858 | 6851 ft | 254 kts | 120° |
| 2026-05-08 01:49 | 53.07343 | -113.40661 | 6721 ft | 252 kts | 135° |
| 2026-05-08 01:50 | 53.06098 | -113.38642 | 6594 ft | 253 kts | 135° |
| 2026-05-08 01:50 | 53.04845 | -113.36592 | 6458 ft | 254 kts | 134° |
| 2026-05-08 01:50 | 53.03637 | -113.34466 | 6321 ft | 250 kts | 123° |
| 2026-05-08 01:50 | 53.03103 | -113.31789 | 6208 ft | 245 kts | 88° |
| 2026-05-08 01:51 | 53.03485 | -113.29098 | 6090 ft | 239 kts | 58° |
| 2026-05-08 01:51 | 53.04567 | -113.27066 | 5986 ft | 234 kts | 32° |
| 2026-05-08 01:51 | 53.06063 | -113.26079 | 5883 ft | 232 kts | 6° |
| 2026-05-08 01:51 | 53.07662 | -113.26198 | 5762 ft | 231 kts | 346° |
| 2026-05-08 01:52 | 53.09094 | -113.27358 | 5657 ft | 230 kts | 327° |
| 2026-05-08 01:52 | 53.10412 | -113.28894 | 5540 ft | 232 kts | 325° |
| 2026-05-08 01:52 | 53.11698 | -113.30420 | 5407 ft | 230 kts | 326° |
| 2026-05-08 01:52 | 53.12986 | -113.31927 | 5303 ft | 220 kts | 326° |
| 2026-05-08 01:53 | 53.14203 | -113.33337 | 5174 ft | 207 kts | 326° |
| 2026-05-08 01:53 | 53.15352 | -113.34660 | 5099 ft | 196 kts | 327° |
| 2026-05-08 01:53 | 53.16445 | -113.36029 | 5046 ft | 195 kts | 321° |
| 2026-05-08 01:53 | 53.17418 | -113.37559 | 5032 ft | 193 kts | 317° |
| 2026-05-08 01:54 | 53.18364 | -113.39129 | 5020 ft | 192 kts | 317° |
| 2026-05-08 01:54 | 53.19309 | -113.40703 | 4985 ft | 194 kts | 316° |
| 2026-05-08 01:54 | 53.20260 | -113.42286 | 4703 ft | 188 kts | 317° |
| 2026-05-08 01:54 | 53.21152 | -113.43771 | 4454 ft | 173 kts | 316° |
| 2026-05-08 01:55 | 53.22005 | -113.45191 | 4232 ft | 174 kts | 316° |
| 2026-05-08 01:55 | 53.22857 | -113.46609 | 3991 ft | 173 kts | 317° |
| 2026-05-08 01:55 | 53.23706 | -113.48024 | 3789 ft | 172 kts | 316° |
| 2026-05-08 01:55 | 53.24542 | -113.49418 | 3549 ft | 169 kts | 317° |
| 2026-05-08 01:56 | 53.25311 | -113.50700 | 3359 ft | 171 kts | 317° |